^^
Meteo Knjazevac Station Historical Data
Daily Summary for October 16, 2021 Units:  English    Metric   Both
Daily Weekly Monthly Yearly Custom
  High: Low: Average:
Temperature: 51.3 °F 46.5 °F 48.6 °F
Dew Point: 51 °F 46.3 °F 48.4 °F
Humidity: 99% 99% 99%
Wind Speed: 7mph 0mph 2.2mph
Wind Gust: 14mph - -
Wind- - South
Pressure: 30.19 in 30.03 in -
Precipitation: 0.64 in    
Historical Graphs
 
 
Tabular Data for October 16, 2021
Time Temperature Dew Point Pressure Wind Wind Speed Wind Gust Humidity Rainfall Rate (Hourly) solar Conditions
00:00 46.5 °F 46.3 °F 30.05 in North 6 mph 14 mph 99% 0.00 in 0 W/m2
00:10 46.6 °F 46.3 °F 30.05 in North 6 mph 12 mph 99% 0.00 in 0 W/m2
00:20 46.6 °F 46.3 °F 30.05 in North 2 mph 10 mph 99% 0.00 in 0 W/m2
00:30 46.6 °F 46.3 °F 30.05 in North 3 mph 10 mph 99% 0.00 in 0 W/m2
00:40 46.6 °F 46.3 °F 30.05 in North 5 mph 11 mph 99% 0.00 in 0 W/m2
00:50 46.8 °F 46.5 °F 30.05 in North 3 mph 10 mph 99% 0.00 in 0 W/m2
01:00 46.8 °F 46.5 °F 30.04 in North 2 mph 7 mph 99% 0.00 in 0 W/m2
01:10 46.8 °F 46.5 °F 30.05 in North 3 mph 8 mph 99% 0.00 in 0 W/m2
01:20 46.8 °F 46.5 °F 30.05 in North 2 mph 7 mph 99% 0.00 in 0 W/m2
01:30 46.9 °F 46.7 °F 30.05 in Calm   7 mph 99% 0.00 in 0 W/m2
01:40 46.9 °F 46.7 °F 30.05 in NNE 2 mph 7 mph 99% 0.01 in 0 W/m2
01:50 46.9 °F 46.7 °F 30.05 in Calm   3 mph 99% 0.02 in 0 W/m2
02:00 46.9 °F 46.7 °F 30.04 in North 3 mph 6 mph 99% 0.03 in 0 W/m2
02:10 46.9 °F 46.6 °F 30.04 in Calm   6 mph 99% 0.02 in 0 W/m2
02:20 46.9 °F 46.7 °F 30.04 in Calm   8 mph 99% 0.02 in 0 W/m2
02:30 46.9 °F 46.7 °F 30.04 in NNE 1 mph 4 mph 99% 0.01 in 0 W/m2
02:40 46.9 °F 46.7 °F 30.04 in NNE 1 mph 5 mph 99% 0.02 in 0 W/m2
02:50 46.9 °F 46.7 °F 30.04 in NNE 2 mph 3 mph 99% 0.02 in 0 W/m2
03:00 47.1 °F 46.9 °F 30.04 in Calm   2 mph 99% 0.02 in 0 W/m2
03:10 47.1 °F 46.8 °F 30.04 in North 2 mph 5 mph 99% 0.01 in 0 W/m2
03:20 47.1 °F 46.9 °F 30.04 in North 2 mph 6 mph 99% 0.00 in 0 W/m2
03:30 47.3 °F 47 °F 30.04 in Calm   8 mph 99% 0.00 in 0 W/m2
03:40 47.5 °F 47.2 °F 30.03 in North 2 mph 9 mph 99% 0.00 in 0 W/m2
03:50 47.5 °F 47.2 °F 30.03 in North 5 mph 8 mph 99% 0.00 in 0 W/m2
04:00 47.7 °F 47.4 °F 30.03 in North 3 mph 10 mph 99% 0.00 in 0 W/m2
04:10 47.8 °F 47.6 °F 30.03 in North 5 mph 8 mph 99% 0.00 in 0 W/m2
04:20 47.8 °F 47.6 °F 30.03 in North 5 mph 9 mph 99% 0.01 in 0 W/m2
04:30 48 °F 47.8 °F 30.03 in North 3 mph 10 mph 99% 0.01 in 0 W/m2
04:40 48 °F 47.8 °F 30.04 in North 3 mph 9 mph 99% 0.01 in 0 W/m2
04:50 48 °F 47.8 °F 30.04 in North 3 mph 8 mph 99% 0.02 in 0 W/m2
05:00 48 °F 47.8 °F 30.04 in North 3 mph 8 mph 99% 0.02 in 0 W/m2
05:10 48.2 °F 47.9 °F 30.04 in North 7 mph 11 mph 99% 0.01 in 0 W/m2
05:20 48.2 °F 47.9 °F 30.03 in North 2 mph 11 mph 99% 0.00 in 0 W/m2
05:30 48.2 °F 47.9 °F 30.04 in North 6 mph 11 mph 99% 0.01 in 0 W/m2
05:40 48.4 °F 48.1 °F 30.04 in North 3 mph 9 mph 99% 0.01 in 0 W/m2
05:50 48.4 °F 48.1 °F 30.04 in North 3 mph 10 mph 99% 0.02 in 0 W/m2
06:00 48.4 °F 48.1 °F 30.03 in NNE 3 mph 8 mph 99% 0.01 in 0 W/m2
06:10 48.4 °F 48.1 °F 30.04 in North 3 mph 9 mph 99% 0.02 in 0 W/m2
06:20 48.4 °F 48.1 °F 30.04 in North 5 mph 8 mph 99% 0.02 in 0 W/m2
06:30 48.4 °F 48.1 °F 30.04 in North 5 mph 9 mph 99% 0.02 in 0 W/m2
06:40 48.4 °F 48.1 °F 30.04 in North 2 mph 6 mph 99% 0.01 in 0 W/m2
06:50 48.4 °F 48.1 °F 30.04 in North 2 mph 7 mph 99% 0.02 in 0 W/m2
07:00 48.4 °F 48.1 °F 30.04 in North 1 mph 7 mph 99% 0.02 in 1 W/m2
07:10 48.6 °F 48.3 °F 30.04 in Calm   6 mph 99% 0.02 in 3 W/m2
07:20 48.6 °F 48.3 °F 30.04 in North 3 mph 9 mph 99% 0.01 in 5 W/m2
07:30 48.6 °F 48.3 °F 30.04 in North 1 mph 7 mph 99% 0.00 in 5 W/m2
07:40 48.6 °F 48.3 °F 30.05 in North 1 mph 7 mph 99% 0.01 in 5 W/m2
07:50 48.7 °F 48.5 °F 30.06 in North 2 mph 5 mph 99% 0.00 in 6 W/m2
08:00 48.6 °F 48.3 °F 30.06 in North 3 mph 7 mph 99% 0.00 in 7 W/m2
08:10 48.7 °F 48.5 °F 30.06 in North 3 mph 8 mph 99% 0.06 in 10 W/m2
08:20 48.7 °F 48.5 °F 30.06 in North 5 mph 9 mph 99% 0.00 in 24 W/m2
08:30 48.9 °F 48.7 °F 30.06 in North 1 mph 8 mph 99% 0.01 in 33 W/m2
08:40 48.9 °F 48.7 °F 30.06 in North 2 mph 8 mph 99% 0.00 in 26 W/m2
08:50 49.1 °F 48.8 °F 30.07 in North 3 mph 10 mph 99% 0.00 in 36 W/m2
09:00 49.1 °F 48.8 °F 30.07 in North 2 mph 9 mph 99% 0.00 in 51 W/m2
09:10 49.3 °F 49 °F 30.07 in North 2 mph 8 mph 99% 0.01 in 66 W/m2
09:20 49.5 °F 49.2 °F 30.07 in North 3 mph 8 mph 99% 0.01 in 56 W/m2
09:30 49.5 °F 49.2 °F 30.07 in North 3 mph 7 mph 99% 0.00 in 50 W/m2
09:40 49.6 °F 49.4 °F 30.07 in North 1 mph 8 mph 99% 0.00 in 48 W/m2
09:50 49.6 °F 49.4 °F 30.08 in NNE 3 mph 9 mph 99% 0.00 in 55 W/m2
10:00 49.6 °F 49.4 °F 30.08 in NNE 5 mph 8 mph 99% 0.00 in 59 W/m2
10:10 49.6 °F 49.4 °F 30.08 in North 2 mph 8 mph 99% 0.00 in 63 W/m2
10:20 49.8 °F 49.6 °F 30.08 in North 5 mph 8 mph 99% 0.00 in 83 W/m2
10:30 50 °F 49.7 °F 30.09 in North 1 mph 8 mph 99% 0.00 in 91 W/m2
10:40 50.2 °F 49.9 °F 30.09 in North 2 mph 6 mph 99% 0.00 in 84 W/m2
10:50 50.2 °F 49.9 °F 30.09 in Calm   4 mph 99% 0.00 in 108 W/m2
11:00 50.4 °F 50.1 °F 30.09 in North 2 mph 7 mph 99% 0.00 in 122 W/m2
11:10 50.5 °F 50.3 °F 30.09 in North 2 mph 5 mph 99% 0.00 in 125 W/m2
11:20 50.7 °F 50.4 °F 30.09 in North 2 mph 6 mph 99% 0.00 in 100 W/m2
11:30 50.9 °F 50.6 °F 30.09 in North 2 mph 6 mph 99% 0.00 in 94 W/m2
11:40 50.9 °F 50.6 °F 30.09 in NNE 2 mph 7 mph 99% 0.00 in 95 W/m2
11:50 51.1 °F 50.8 °F 30.10 in North 2 mph 6 mph 99% 0.00 in 93 W/m2
12:00 51.1 °F 50.8 °F 30.10 in North 1 mph 6 mph 99% 0.00 in 98 W/m2
12:10 51.3 °F 51 °F 30.10 in Calm   4 mph 99% 0.00 in 99 W/m2
12:20 51.3 °F 51 °F 30.10 in Calm   3 mph 99% 0.00 in 72 W/m2
12:30 51.3 °F 51 °F 30.10 in Calm   3 mph 99% 0.00 in 54 W/m2
12:40 51.3 °F 51 °F 30.10 in NNE 2 mph 5 mph 99% 0.00 in 61 W/m2
12:50 51.3 °F 51 °F 30.10 in NNE 2 mph 5 mph 99% 0.00 in 48 W/m2
13:00 51.3 °F 51 °F 30.10 in NNE 2 mph 5 mph 99% 0.00 in 68 W/m2
13:10 51.3 °F 51 °F 30.10 in NNE 2 mph 6 mph 99% 0.00 in 52 W/m2
13:20 51.3 °F 51 °F 30.10 in NNW 3 mph 5 mph 99% 0.00 in 43 W/m2
13:30 50.9 °F 50.6 °F 30.10 in West 3 mph 6 mph 99% 0.00 in 54 W/m2
13:40 50.6 °F 50.3 °F 30.10 in West 3 mph 8 mph 99% 0.00 in 63 W/m2
13:50 50.4 °F 50.1 °F 30.10 in West 5 mph 8 mph 99% 0.00 in 94 W/m2
14:00 50 °F 49.7 °F 30.10 in West 5 mph 10 mph 99% 0.00 in 84 W/m2
14:10 49.8 °F 49.6 °F 30.10 in West 5 mph 7 mph 99% 0.00 in 69 W/m2
14:20 49.6 °F 49.4 °F 30.10 in West 6 mph 10 mph 99% 0.00 in 87 W/m2
14:30 49.6 °F 49.4 °F 30.10 in West 6 mph 9 mph 99% 0.00 in 75 W/m2
14:40 49.5 °F 49.2 °F 30.10 in West 6 mph 9 mph 99% 0.00 in 69 W/m2
14:50 49.3 °F 49 °F 30.10 in West 5 mph 10 mph 99% 0.00 in 47 W/m2
15:00 49.1 °F 48.8 °F 30.10 in West 5 mph 10 mph 99% 0.00 in 49 W/m2
15:10 49.1 °F 48.8 °F 30.10 in West 3 mph 9 mph 99% 0.00 in 43 W/m2
15:20 49.1 °F 48.8 °F 30.11 in West 5 mph 8 mph 99% 0.00 in 45 W/m2
15:30 49.1 °F 48.8 °F 30.11 in West 5 mph 10 mph 99% 0.00 in 38 W/m2
15:40 49.1 °F 48.8 °F 30.11 in West 3 mph 10 mph 99% 0.00 in 30 W/m2
15:50 49.1 °F 48.8 °F 30.11 in WSW 3 mph 10 mph 99% 0.00 in 28 W/m2
16:00 49.1 °F 48.8 °F 30.12 in WSW 3 mph 7 mph 99% 0.00 in 22 W/m2
16:10 49.1 °F 48.8 °F 30.12 in WSW 2 mph 5 mph 99% 0.00 in 16 W/m2
16:20 49.1 °F 48.8 °F 30.12 in West 3 mph 7 mph 99% 0.00 in 15 W/m2
16:30 48.9 °F 48.7 °F 30.12 in West 2 mph 8 mph 99% 0.00 in 12 W/m2
16:40 48.9 °F 48.7 °F 30.12 in WSW 3 mph 6 mph 99% 0.00 in 10 W/m2
16:50 48.9 °F 48.6 °F 30.12 in WSW 2 mph 6 mph 99% 0.00 in 8 W/m2
17:00 48.7 °F 48.5 °F 30.12 in Calm   6 mph 99% 0.00 in 8 W/m2
17:10 48.7 °F 48.5 °F 30.13 in SW 1 mph 5 mph 99% 0.00 in 5 W/m2
17:20 48.7 °F 48.5 °F 30.13 in SSW 2 mph 3 mph 99% 0.00 in 3 W/m2
17:30 48.6 °F 48.3 °F 30.13 in SW 1 mph 4 mph 99% 0.00 in 1 W/m2
17:40 48.6 °F 48.3 °F 30.14 in SW 2 mph 4 mph 99% 0.00 in 0 W/m2
17:50 48.6 °F 48.3 °F 30.14 in SW 1 mph 4 mph 99% 0.00 in 0 W/m2
18:00 48.6 °F 48.3 °F 30.14 in SSW 2 mph 4 mph 99% 0.00 in 0 W/m2
18:10 48.5 °F 48.3 °F 30.14 in SSW 1 mph 4 mph 99% 0.00 in 0 W/m2
18:20 48.6 °F 48.3 °F 30.15 in SW 2 mph 5 mph 99% 0.00 in 0 W/m2
18:30 48.4 °F 48.1 °F 30.15 in SW 2 mph 5 mph 99% 0.00 in 0 W/m2
18:40 48.4 °F 48.1 °F 30.15 in SW 1 mph 4 mph 99% 0.00 in 0 W/m2
18:50 48.4 °F 48.1 °F 30.15 in West 1 mph 3 mph 99% 0.00 in 0 W/m2
19:00 48.4 °F 48.1 °F 30.16 in WSW 1 mph 3 mph 99% 0.00 in 0 W/m2
19:10 48.4 °F 48.1 °F 30.16 in South 1 mph 2 mph 99% 0.00 in 0 W/m2
19:20 48.4 °F 48.1 °F 30.16 in Calm   2 mph 99% 0.00 in 0 W/m2
19:30 48.4 °F 48.1 °F 30.17 in SSW 2 mph 3 mph 99% 0.09 in 0 W/m2
19:40 48.3 °F 48.1 °F 30.17 in SW 1 mph 3 mph 99% 0.00 in 0 W/m2
19:50 48.2 °F 47.9 °F 30.17 in SSE 1 mph 4 mph 99% 0.00 in 0 W/m2
20:00 48.2 °F 47.9 °F 30.17 in SE 1 mph 3 mph 99% 0.00 in 0 W/m2
20:10 48.2 °F 47.9 °F 30.17 in Calm   3 mph 99% 0.00 in 0 W/m2
20:20 48.2 °F 47.9 °F 30.17 in Calm   4 mph 99% 0.00 in 0 W/m2
20:30 48.2 °F 47.9 °F 30.17 in NNE 1 mph 2 mph 99% 0.00 in 0 W/m2
20:40 48.2 °F 47.9 °F 30.17 in Calm   2 mph 99% 0.00 in 0 W/m2
20:50 48.2 °F 47.9 °F 30.18 in Calm   2 mph 99% 0.00 in 0 W/m2
21:00 48.2 °F 47.9 °F 30.18 in Calm   2 mph 99% 0.00 in 0 W/m2
21:10 48.2 °F 47.9 °F 30.18 in Calm   2 mph 99% 0.00 in 0 W/m2
21:20 48.2 °F 47.9 °F 30.18 in Calm   2 mph 99% 0.00 in 0 W/m2
21:30 48 °F 47.8 °F 30.18 in WSW 1 mph 3 mph 99% 0.00 in 0 W/m2
21:40 48 °F 47.8 °F 30.18 in Calm   2 mph 99% 0.00 in 0 W/m2
21:50 48 °F 47.8 °F 30.19 in SSE 1 mph 2 mph 99% 0.00 in 0 W/m2
22:00 48 °F 47.8 °F 30.19 in SW 1 mph 2 mph 99% 0.00 in 0 W/m2
22:10 48 °F 47.8 °F 30.19 in Calm   3 mph 99% 0.00 in 0 W/m2
22:20 48 °F 47.8 °F 30.19 in SW 2 mph 4 mph 99% 0.00 in 0 W/m2
22:30 48 °F 47.8 °F 30.19 in SW 2 mph 4 mph 99% 0.00 in 0 W/m2
22:40 48 °F 47.8 °F 30.19 in SW 2 mph 5 mph 99% 0.00 in 0 W/m2
22:50 48 °F 47.7 °F 30.19 in SW 2 mph 3 mph 99% 0.00 in 0 W/m2
23:00 47.8 °F 47.6 °F 30.19 in SW 2 mph 4 mph 99% 0.00 in 0 W/m2
23:10 47.8 °F 47.6 °F 30.19 in SW 2 mph 4 mph 99% 0.00 in 0 W/m2
23:20 47.8 °F 47.6 °F 30.19 in SW 1 mph 4 mph 99% 0.00 in 0 W/m2
23:30 47.8 °F 47.6 °F 30.19 in Calm   4 mph 99% 0.00 in 0 W/m2
23:40 47.8 °F 47.6 °F 30.19 in Calm   4 mph 99% 0.00 in 0 W/m2
23:50 47.8 °F 47.6 °F 30.19 in ESE 1 mph 3 mph 99% 0.00 in 0 W/m2
Knjazevac, Serbia
Compliments of Weather Underground - 2 mb